Time;durP1;ratioP1;P1;durP2;ratioP2;P2;SDS_P1;SDS_P2;PMS_P1;PMS_P2;Temp;Humidity;BMP_temperature;BMP_pressure;BME280_temperature;BME280_humidity;BME280_pressure;Samples;Min_cycle;Max_cycle;Signal;HPM_P1;HPM_P2
2022/04/24 00:02:14;;;;;;;23.13;20.10;;;13.50;63.10;;;;;;5011591;28;20095;-75
2022/04/24 00:04:40;;;;;;;24.35;20.15;;;13.50;63.00;;;;;;5012091;28;20049;-75
2022/04/24 00:07:09;;;;;;;23.83;19.95;;;13.60;62.90;;;;;;5009701;28;20041;-75
2022/04/24 00:09:36;;;;;;;21.38;18.65;;;13.60;62.80;;;;;;5009130;28;20030;-76
2022/04/24 00:12:01;;;;;;;22.83;19.50;;;13.60;63.00;;;;;;5010366;28;20038;-75
2022/04/24 00:14:27;;;;;;;22.45;19.10;;;13.60;62.90;;;;;;5009183;28;20065;-76
2022/04/24 00:16:53;;;;;;;23.10;19.83;;;13.60;63.00;;;;;;5011224;28;20124;-75
2022/04/24 00:19:19;;;;;;;23.60;20.02;;;13.60;63.20;;;;;;5009804;28;20363;-75
2022/04/24 00:21:45;;;;;;;26.50;22.25;;;13.60;63.40;;;;;;5012419;28;20477;-75
2022/04/24 00:24:11;;;;;;;27.10;22.45;;;13.50;63.50;;;;;;5011656;28;20390;-76
2022/04/24 00:26:38;;;;;;;25.23;21.02;;;13.40;63.70;;;;;;5012631;28;20548;-76
2022/04/24 00:29:03;;;;;;;25.25;21.13;;;13.40;63.90;;;;;;5010253;28;20148;-75
2022/04/24 00:31:29;;;;;;;28.80;23.13;;;13.30;64.10;;;;;;5012965;28;20206;-75
2022/04/24 00:33:55;;;;;;;24.80;21.52;;;13.20;64.30;;;;;;5011932;28;20033;-75
2022/04/24 00:36:20;;;;;;;26.15;21.73;;;13.20;64.60;;;;;;5013623;28;20041;-75
2022/04/24 00:38:46;;;;;;;26.10;22.30;;;13.10;64.80;;;;;;5011586;28;20049;-75
2022/04/24 00:41:11;;;;;;;29.23;23.40;;;13.00;65.20;;;;;;5011279;28;20508;-75
2022/04/24 00:43:37;;;;;;;29.67;23.33;;;12.90;65.70;;;;;;5010775;28;20087;-75
2022/04/24 00:46:12;;;;;;;30.70;24.27;;;12.90;65.80;;;;;;5012042;28;20037;-77
2022/04/24 00:48:39;;;;;;;29.65;24.33;;;12.80;66.20;;;;;;5016400;28;20388;-77
2022/04/24 00:51:04;;;;;;;28.25;24.05;;;12.70;66.40;;;;;;5014216;28;20515;-75
2022/04/24 00:53:30;;;;;;;27.38;23.38;;;12.70;66.50;;;;;;5011381;28;20087;-76
2022/04/24 00:55:56;;;;;;;28.95;25.52;;;12.60;66.50;;;;;;5011326;28;20441;-75
2022/04/24 00:58:22;;;;;;;29.08;24.88;;;12.60;66.60;;;;;;5010549;28;20046;-75
2022/04/24 01:00:48;;;;;;;35.58;25.80;;;12.60;66.70;;;;;;5011295;28;20034;-75
2022/04/24 01:03:14;;;;;;;32.55;27.30;;;12.50;67.00;;;;;;5010937;28;20041;-75
2022/04/24 01:05:39;;;;;;;31.20;25.73;;;12.40;67.30;;;;;;5009332;28;20030;-75
2022/04/24 01:08:05;;;;;;;32.05;26.95;;;12.30;67.30;;;;;;5011985;28;20037;-76
2022/04/24 01:10:39;;;;;;;31.35;27.25;;;12.30;67.60;;;;;;5010383;28;20080;-76
2022/04/24 01:13:05;;;;;;;30.63;26.13;;;12.10;67.90;;;;;;5009027;28;20041;-75
2022/04/24 01:15:31;;;;;;;29.00;25.77;;;12.10;68.00;;;;;;5011148;28;20041;-74
2022/04/24 01:17:58;;;;;;;30.45;26.40;;;12.10;68.00;;;;;;5009923;28;20048;-76
2022/04/24 01:20:24;;;;;;;29.85;25.60;;;12.10;68.00;;;;;;5010258;28;20037;-75
2022/04/24 01:22:49;;;;;;;27.25;24.25;;;12.10;67.80;;;;;;5011952;28;20056;-75
2022/04/24 01:25:15;;;;;;;27.00;24.05;;;12.00;67.80;;;;;;5012954;28;20041;-74
2022/04/24 01:27:41;;;;;;;26.92;24.13;;;12.10;67.60;;;;;;5011334;28;20500;-75
2022/04/24 01:30:07;;;;;;;27.45;23.50;;;12.00;67.80;;;;;;5011256;28;20392;-74
2022/04/24 01:32:34;;;;;;;26.60;22.42;;;11.90;67.70;;;;;;5015169;28;20058;-75
2022/04/24 01:35:00;;;;;;;25.73;22.90;;;11.90;67.80;;;;;;5012364;28;20107;-74
2022/04/24 01:37:26;;;;;;;25.10;22.30;;;11.90;67.60;;;;;;5017576;28;20044;-75
2022/04/24 01:39:55;;;;;;;24.60;22.00;;;11.90;67.60;;;;;;5016070;28;20045;-76
2022/04/24 01:42:21;;;;;;;24.05;21.40;;;11.80;67.70;;;;;;5014995;28;20111;-75
2022/04/24 01:44:47;;;;;;;23.85;20.80;;;11.80;67.60;;;;;;5029691;28;20042;-76
2022/04/24 01:47:12;;;;;;;23.77;19.50;;;11.80;67.50;;;;;;5015487;28;20037;-75
2022/04/24 01:49:38;;;;;;;23.00;19.60;;;11.80;67.50;;;;;;5013139;28;20044;-74
2022/04/24 01:52:08;;;;;;;22.55;19.02;;;11.80;67.40;;;;;;5015116;28;20049;-75
2022/04/24 01:54:34;;;;;;;24.27;18.90;;;11.80;67.30;;;;;;5015719;28;20061;-75
2022/04/24 01:57:00;;;;;;;23.48;19.60;;;11.70;67.10;;;;;;5017050;28;20628;-75
2022/04/24 01:59:25;;;;;;;22.02;18.52;;;11.70;67.20;;;;;;5013968;28;20490;-74
2022/04/24 02:01:51;;;;;;;21.45;18.65;;;11.70;67.00;;;;;;5015323;28;20547;-75
2022/04/24 02:04:23;;;;;;;21.23;16.88;;;11.70;66.90;;;;;;5015766;28;20115;-75
2022/04/24 02:06:49;;;;;;;20.63;17.73;;;11.70;67.00;;;;;;5028586;28;20033;-74
2022/04/24 02:09:15;;;;;;;20.35;17.40;;;11.60;66.90;;;;;;5014523;28;20385;-75
2022/04/24 02:11:41;;;;;;;23.00;16.77;;;11.60;67.00;;;;;;5016939;28;20048;-76
2022/04/24 02:14:06;;;;;;;19.40;16.05;;;11.60;66.90;;;;;;5019821;28;20041;-75
2022/04/24 02:16:32;;;;;;;20.67;16.42;;;11.60;67.20;;;;;;5029206;28;20610;-75
2022/04/24 02:18:58;;;;;;;20.48;17.38;;;11.60;67.10;;;;;;5016273;28;20283;-75
2022/04/24 02:21:24;;;;;;;18.88;15.38;;;11.50;67.10;;;;;;5013793;28;20112;-75
2022/04/24 02:23:49;;;;;;;21.75;17.15;;;11.50;67.10;;;;;;5015924;28;20045;-76
2022/04/24 02:26:15;;;;;;;19.20;17.10;;;11.50;67.20;;;;;;5016278;28;20030;-76
2022/04/24 02:28:41;;;;;;;20.60;16.95;;;11.50;67.10;;;;;;5014938;28;20029;-75
2022/04/24 02:31:07;;;;;;;18.90;16.00;;;11.50;67.20;;;;;;5013791;28;20044;-75
2022/04/24 02:33:34;;;;;;;17.42;15.55;;;11.40;67.20;;;;;;5012486;28;20104;-75
2022/04/24 02:35:59;;;;;;;20.20;15.52;;;11.40;67.20;;;;;;5014741;28;20034;-75
2022/04/24 02:38:25;;;;;;;18.02;14.80;;;11.40;67.20;;;;;;5014126;28;20122;-76
2022/04/24 02:40:51;;;;;;;19.25;15.43;;;11.40;67.30;;;;;;5014175;28;20045;-75
2022/04/24 02:43:16;;;;;;;18.55;14.80;;;11.50;67.10;;;;;;5014622;28;20044;-76
2022/04/24 02:45:43;;;;;;;18.55;14.98;;;11.50;67.00;;;;;;5014482;28;20034;-75
2022/04/24 02:48:09;;;;;;;19.73;15.02;;;11.50;67.00;;;;;;5013494;28;20111;-76
2022/04/24 02:50:35;;;;;;;17.00;13.55;;;11.50;66.90;;;;;;5013697;28;20488;-76
2022/04/24 02:53:01;;;;;;;16.67;13.75;;;11.50;66.90;;;;;;5014231;28;20076;-76
2022/04/24 02:55:26;;;;;;;19.33;13.35;;;11.50;66.80;;;;;;5013468;28;20033;-74
2022/04/24 02:57:53;;;;;;;16.25;13.45;;;11.50;66.80;;;;;;5013742;28;20080;-75
2022/04/24 03:00:22;;;;;;;17.00;13.40;;;11.60;66.70;;;;;;5011326;28;20100;-74
2022/04/24 03:02:49;;;;;;;16.52;13.10;;;11.60;66.60;;;;;;5013858;28;20042;-77
2022/04/24 03:05:17;;;;;;;15.43;13.02;;;11.60;66.60;;;;;;5012616;28;20995;-76
2022/04/24 03:07:43;;;;;;;17.50;12.75;;;11.70;66.40;;;;;;5015390;28;20124;-76
2022/04/24 03:10:09;;;;;;;16.48;12.65;;;11.60;66.30;;;;;;5012649;28;20038;-76
2022/04/24 03:12:36;;;;;;;15.45;13.13;;;11.70;66.30;;;;;;5013408;28;20485;-76
2022/04/24 03:15:07;;;;;;;16.65;12.77;;;11.70;66.30;;;;;;5012489;28;20508;-76
2022/04/24 03:17:32;;;;;;;16.27;12.02;;;11.80;66.10;;;;;;5012758;28;20152;-76
2022/04/24 03:19:59;;;;;;;16.08;12.23;;;11.80;66.10;;;;;;5012117;28;20053;-76
2022/04/24 03:22:26;;;;;;;14.68;11.70;;;11.80;66.10;;;;;;5012939;28;20037;-76
2022/04/24 03:24:52;;;;;;;14.98;11.07;;;11.80;66.10;;;;;;5012176;28;20091;-76
2022/04/24 03:27:17;;;;;;;14.82;11.27;;;11.80;66.00;;;;;;5013437;28;20038;-76
2022/04/24 03:29:43;;;;;;;14.05;10.77;;;11.80;66.20;;;;;;5016464;28;20037;-74
2022/04/24 03:32:09;;;;;;;15.18;11.25;;;11.80;66.00;;;;;;5023799;28;20116;-74
2022/04/24 03:34:37;;;;;;;16.10;11.30;;;11.80;65.90;;;;;;5015829;28;20357;-75
2022/04/24 03:37:03;;;;;;;13.73;10.82;;;11.80;65.80;;;;;;5010133;28;21100;-74
2022/04/24 03:39:29;;;;;;;13.77;9.85;;;11.90;65.50;;;;;;5007766;28;20042;-75
2022/04/24 03:41:55;;;;;;;13.77;10.55;;;11.90;65.40;;;;;;5011769;28;20049;-74
2022/04/24 03:44:20;;;;;;;14.40;10.10;;;11.90;65.00;;;;;;5011495;28;20037;-75
2022/04/24 03:46:46;;;;;;;13.80;9.98;;;12.00;65.00;;;;;;5012175;28;20033;-75
2022/04/24 03:49:12;;;;;;;12.20;9.85;;;12.00;64.60;;;;;;5009789;28;20516;-74
2022/04/24 03:51:37;;;;;;;13.70;10.18;;;12.00;64.50;;;;;;5011096;28;20049;-75
2022/04/24 03:54:03;;;;;;;13.25;10.27;;;12.00;64.50;;;;;;5011988;28;20151;-75
2022/04/24 03:56:31;;;;;;;14.68;9.73;;;12.10;64.20;;;;;;5013002;28;20034;-76
2022/04/24 03:58:58;;;;;;;13.07;9.85;;;12.10;64.20;;;;;;5016254;28;20125;-75
2022/04/24 04:01:24;;;;;;;13.32;9.60;;;12.10;63.90;;;;;;5022820;28;20045;-75
2022/04/24 04:03:51;;;;;;;11.88;9.48;;;12.10;63.60;;;;;;5020639;28;20530;-76
2022/04/24 04:06:16;;;;;;;14.88;10.13;;;12.10;63.50;;;;;;5022072;28;20029;-77
2022/04/24 04:08:42;;;;;;;13.82;9.25;;;12.10;63.20;;;;;;5019346;28;20033;-75
2022/04/24 04:11:08;;;;;;;14.85;9.27;;;12.10;63.00;;;;;;5017225;28;20048;-76
2022/04/24 04:13:34;;;;;;;11.38;9.20;;;12.20;62.90;;;;;;5010870;28;20526;-76
2022/04/24 04:16:00;;;;;;;12.95;9.77;;;12.20;62.70;;;;;;5016040;28;20045;-75
2022/04/24 04:18:26;;;;;;;12.30;9.40;;;12.20;62.50;;;;;;5014018;28;21340;-76
2022/04/24 04:20:52;;;;;;;14.40;9.45;;;12.20;62.70;;;;;;5012894;28;20065;-74
2022/04/24 04:23:17;;;;;;;12.45;9.68;;;12.30;62.50;;;;;;5011038;28;20038;-75
2022/04/24 04:25:43;;;;;;;12.48;8.77;;;12.30;62.50;;;;;;5014623;28;20044;-76
2022/04/24 04:28:09;;;;;;;11.85;9.40;;;12.20;62.30;;;;;;5011416;28;20433;-75
2022/04/24 04:30:34;;;;;;;12.20;9.48;;;12.20;61.90;;;;;;5013016;28;20036;-76
2022/04/24 04:33:00;;;;;;;12.00;9.32;;;12.30;61.90;;;;;;5010421;28;20650;-75
2022/04/24 04:35:26;;;;;;;12.23;9.13;;;12.30;61.80;;;;;;5011515;28;20485;-75
2022/04/24 04:37:52;;;;;;;13.60;9.40;;;12.30;61.40;;;;;;5012171;28;20037;-75
2022/04/24 04:40:20;;;;;;;12.93;9.77;;;12.30;61.60;;;;;;5012540;28;20520;-75
2022/04/24 04:42:47;;;;;;;14.57;9.43;;;12.30;61.50;;;;;;5013270;28;20048;-75
2022/04/24 04:45:14;;;;;;;12.68;9.43;;;12.30;60.90;;;;;;5012666;28;20042;-75
2022/04/24 04:47:40;;;;;;;10.32;8.82;;;12.40;61.10;;;;;;5011465;28;20055;-75
2022/04/24 04:50:06;;;;;;;12.80;9.23;;;12.40;61.10;;;;;;5011656;28;20422;-75
2022/04/24 04:52:33;;;;;;;15.35;10.38;;;12.30;61.00;;;;;;5012132;28;20041;-76
2022/04/24 04:54:59;;;;;;;13.70;9.65;;;12.30;61.00;;;;;;5013368;28;20831;-75
2022/04/24 04:57:25;;;;;;;12.63;9.55;;;12.30;60.90;;;;;;5011018;28;20915;-75
2022/04/24 04:59:51;;;;;;;12.68;9.32;;;12.30;60.70;;;;;;5015719;28;20053;-75
2022/04/24 05:02:17;;;;;;;12.38;9.50;;;12.30;60.10;;;;;;5012655;28;20412;-75
2022/04/24 05:04:43;;;;;;;11.90;8.77;;;12.30;60.40;;;;;;5013410;28;20041;-75
2022/04/24 05:07:13;;;;;;;13.30;9.32;;;12.40;60.30;;;;;;5011244;28;20033;-76
2022/04/24 05:09:39;;;;;;;11.63;9.32;;;12.40;60.10;;;;;;5006859;28;20037;-75
2022/04/24 05:12:05;;;;;;;12.35;9.10;;;12.30;60.40;;;;;;5006431;28;20458;-75
2022/04/24 05:14:31;;;;;;;14.70;9.77;;;12.40;60.70;;;;;;5011182;28;20113;-75
2022/04/24 05:16:57;;;;;;;15.50;10.05;;;12.40;60.60;;;;;;5013073;28;20488;-75
2022/04/24 05:19:25;;;;;;;14.02;10.35;;;12.40;61.10;;;;;;5009551;28;20060;-75
2022/04/24 05:21:51;;;;;;;14.77;11.32;;;12.30;61.30;;;;;;5012052;28;20080;-74
2022/04/24 05:24:17;;;;;;;14.10;10.48;;;12.20;61.60;;;;;;5012479;28;20040;-75
2022/04/24 05:26:42;;;;;;;14.57;11.20;;;12.30;61.50;;;;;;5011134;28;20037;-76
2022/04/24 05:29:08;;;;;;;14.00;10.80;;;12.20;61.70;;;;;;5010539;28;20057;-75
2022/04/24 05:31:34;;;;;;;12.80;10.73;;;12.20;62.00;;;;;;5011758;28;20076;-76
2022/04/24 05:33:59;;;;;;;14.63;11.02;;;12.20;62.30;;;;;;5012020;28;20056;-77
2022/04/24 05:36:25;;;;;;;12.88;10.40;;;12.20;62.00;;;;;;5014037;28;20400;-75
2022/04/24 05:38:51;;;;;;;14.02;11.38;;;12.20;62.10;;;;;;5008541;28;20033;-76
2022/04/24 05:41:16;;;;;;;14.90;10.23;;;12.10;62.30;;;;;;5009563;28;20656;-76
2022/04/24 05:43:42;;;;;;;12.73;10.70;;;12.20;62.40;;;;;;5011299;28;20042;-76
2022/04/24 05:46:07;;;;;;;14.07;10.82;;;12.20;61.70;;;;;;5011667;28;20037;-77
2022/04/24 05:48:33;;;;;;;13.98;10.70;;;12.20;61.80;;;;;;5008437;28;20041;-76
2022/04/24 05:50:59;;;;;;;15.30;11.15;;;12.10;61.80;;;;;;5010128;28;20467;-76
2022/04/24 05:53:25;;;;;;;15.55;10.43;;;12.10;62.10;;;;;;5010675;28;20033;-76
2022/04/24 05:55:51;;;;;;;14.30;10.95;;;12.10;61.80;;;;;;5011464;28;20483;-76
2022/04/24 05:58:17;;;;;;;18.20;11.80;;;12.10;61.90;;;;;;5008377;28;20037;-76
2022/04/24 06:00:42;;;;;;;12.68;10.02;;;12.10;62.20;;;;;;5008447;28;20045;-76
2022/04/24 06:03:08;;;;;;;13.45;11.20;;;12.20;61.80;;;;;;5008728;28;20460;-76
2022/04/24 06:05:33;;;;;;;13.98;11.30;;;12.10;61.80;;;;;;5009864;28;20041;-76
2022/04/24 06:07:59;;;;;;;14.25;10.25;;;12.20;61.60;;;;;;5009812;28;20057;-76
2022/04/24 06:10:25;;;;;;;14.73;11.05;;;12.10;61.70;;;;;;5010971;28;20037;-75
2022/04/24 06:12:55;;;;;;;14.15;10.93;;;12.20;62.00;;;;;;5008031;28;20041;-77
2022/04/24 06:15:24;;;;;;;15.48;10.93;;;12.20;61.80;;;;;;5009041;28;20038;-75
2022/04/24 06:17:51;;;;;;;13.25;11.15;;;12.20;62.00;;;;;;5006204;28;20041;-75
2022/04/24 06:20:18;;;;;;;13.70;11.18;;;12.20;61.50;;;;;;5011853;28;20049;-75
2022/04/24 06:22:55;;;;;;;13.68;10.45;;;12.10;61.10;;;;;;5014062;28;20670;-75
2022/04/24 06:25:26;;;;;;;18.65;13.55;;;12.10;61.80;;;;;;5011774;28;20094;-76
2022/04/24 06:27:52;;;;;;;15.18;11.52;;;12.20;61.60;;;;;;5013109;28;20041;-76
2022/04/24 06:30:20;;;;;;;13.23;10.82;;;12.20;62.20;;;;;;5014551;28;20034;-78
2022/04/24 06:32:46;;;;;;;17.10;10.50;;;12.20;61.50;;;;;;5012473;28;20512;-75
2022/04/24 06:35:14;;;;;;;13.32;11.27;;;12.30;61.50;;;;;;5011534;28;20045;-78
2022/04/24 06:37:45;;;;;;;12.50;11.20;;;12.20;61.50;;;;;;5012498;28;20033;-78
2022/04/24 06:40:12;;;;;;;14.30;12.07;;;12.30;61.70;;;;;;5012947;28;20045;-78
2022/04/24 06:42:48;;;;;;;13.95;12.02;;;12.20;61.00;;;;;;5011516;28;20037;-80
2022/04/24 06:45:15;;;;;;;14.13;11.80;;;12.00;61.40;;;;;;5009295;28;20048;-78
2022/04/24 06:47:41;;;;;;;12.65;11.23;;;12.00;61.50;;;;;;5010367;28;20033;-78
2022/04/24 06:50:07;;;;;;;14.80;11.57;;;12.10;61.50;;;;;;5010554;28;20578;-79
2022/04/24 06:52:32;;;;;;;14.20;11.98;;;12.10;61.60;;;;;;5011945;28;20071;-79
2022/04/24 06:55:00;;;;;;;16.23;12.10;;;12.10;61.30;;;;;;5007361;28;20473;-78
2022/04/24 06:57:26;;;;;;;14.82;12.75;;;12.10;61.80;;;;;;5014084;28;20064;-78
2022/04/24 06:59:52;;;;;;;15.40;12.55;;;12.30;61.80;;;;;;5013453;28;20046;-78
2022/04/24 07:02:17;;;;;;;15.68;13.38;;;12.30;61.30;;;;;;5014274;28;20665;-79
2022/04/24 07:04:43;;;;;;;14.40;12.57;;;12.30;61.40;;;;;;5011860;28;20500;-79
2022/04/24 07:07:08;;;;;;;16.77;13.40;;;12.40;61.40;;;;;;5013575;28;20041;-79
2022/04/24 07:09:34;;;;;;;16.13;13.63;;;12.60;61.10;;;;;;5010750;28;20114;-78
2022/04/24 07:12:00;;;;;;;15.30;12.80;;;12.70;60.40;;;;;;5011918;28;20049;-79
2022/04/24 07:14:25;;;;;;;16.73;14.63;;;12.70;60.70;;;;;;5013162;28;20030;-78
2022/04/24 07:16:51;;;;;;;15.52;13.02;;;12.60;60.30;;;;;;5010356;28;20472;-79
2022/04/24 07:19:17;;;;;;;15.38;13.20;;;13.00;59.60;;;;;;5010517;28;20092;-79
2022/04/24 07:21:42;;;;;;;17.08;14.65;;;13.40;58.70;;;;;;5015772;28;20060;-79
2022/04/24 07:24:08;;;;;;;16.63;14.10;;;13.20;58.80;;;;;;5011957;28;20080;-79
2022/04/24 07:26:34;;;;;;;17.13;14.02;;;13.20;59.00;;;;;;5012738;28;20099;-79
2022/04/24 07:28:59;;;;;;;16.90;14.10;;;13.40;58.20;;;;;;5013297;28;20052;-79
2022/04/24 07:31:25;;;;;;;15.48;13.25;;;13.50;58.00;;;;;;5012849;28;20056;-79
2022/04/24 07:33:52;;;;;;;16.25;14.38;;;13.60;58.10;;;;;;5009218;28;20447;-79
2022/04/24 07:36:18;;;;;;;17.38;14.20;;;13.70;57.60;;;;;;5009746;28;20496;-79
2022/04/24 07:38:44;;;;;;;18.08;14.00;;;13.60;58.40;;;;;;5011659;28;20037;-79
2022/04/24 07:41:10;;;;;;;17.85;15.38;;;13.60;58.20;;;;;;5013161;28;20057;-79
2022/04/24 07:43:36;;;;;;;16.42;14.02;;;13.60;58.50;;;;;;5010012;28;20052;-79
2022/04/24 07:46:02;;;;;;;20.75;15.40;;;13.80;58.60;;;;;;5010601;28;20069;-78
2022/04/24 07:48:28;;;;;;;18.38;15.13;;;13.90;57.90;;;;;;5007986;28;20481;-78
2022/04/24 07:50:53;;;;;;;18.65;13.73;;;14.10;56.90;;;;;;5009864;28;20477;-79
2022/04/24 07:53:20;;;;;;;17.85;14.82;;;14.20;57.20;;;;;;5007990;28;20049;-78
2022/04/24 07:55:48;;;;;;;17.05;14.57;;;14.30;56.80;;;;;;5007540;28;20037;-79
2022/04/24 07:58:14;;;;;;;18.42;14.98;;;14.50;56.80;;;;;;5001145;28;20073;-78
2022/04/24 08:00:41;;;;;;;15.75;13.73;;;14.60;56.40;;;;;;5008485;28;20462;-79
2022/04/24 08:03:13;;;;;;;17.15;14.15;;;14.30;56.30;;;;;;5007989;28;20045;-81
2022/04/24 08:05:45;;;;;;;17.67;14.88;;;14.40;56.60;;;;;;5008789;28;20104;-78
2022/04/24 08:08:20;;;;;;;16.02;14.30;;;14.60;55.60;;;;;;5007691;28;20535;-79
2022/04/24 08:10:49;;;;;;;;;;;14.60;55.60;;;;;;5010026;28;20492;-80
2022/04/24 08:13:16;;;;;;;18.15;14.38;;;14.60;55.40;;;;;;5013865;28;19924;-80
2022/04/24 08:15:42;;;;;;;17.02;13.82;;;14.60;55.80;;;;;;5018941;28;20042;-78
2022/04/24 08:18:12;;;;;;;17.05;14.32;;;14.80;55.80;;;;;;5011124;28;20044;-78
2022/04/24 08:20:38;;;;;;;17.85;15.13;;;15.10;54.70;;;;;;5010569;28;20051;-80
2022/04/24 08:23:05;;;;;;;18.92;14.88;;;15.10;53.90;;;;;;5009119;28;20038;-79
2022/04/24 08:25:35;;;;;;;22.27;15.48;;;14.80;54.40;;;;;;5009484;28;20041;-78
2022/04/24 08:28:09;;;;;;;17.23;14.38;;;14.60;55.30;;;;;;5007472;28;20041;-78
2022/04/24 08:30:38;;;;;;;16.03;14.27;;;14.60;56.50;;;;;;5010185;28;20052;-78
2022/04/24 08:33:04;;;;;;;17.27;14.32;;;14.90;54.30;;;;;;5009321;28;20307;-78
2022/04/24 08:35:30;;;;;;;16.90;15.10;;;15.00;54.40;;;;;;5012127;28;20141;-80
2022/04/24 08:37:55;;;;;;;17.35;14.32;;;14.80;54.90;;;;;;5010330;28;21315;-78
2022/04/24 08:40:24;;;;;;;17.40;14.05;;;15.00;54.90;;;;;;5009334;28;20942;-79
2022/04/24 08:42:51;;;;;;;16.55;14.23;;;15.20;53.90;;;;;;5013924;28;20485;-79
2022/04/24 08:45:17;;;;;;;18.40;14.65;;;15.40;54.20;;;;;;5011549;28;20991;-79
2022/04/24 08:47:44;;;;;;;19.42;14.82;;;15.60;54.20;;;;;;5012670;28;20374;-78
2022/04/24 08:50:11;;;;;;;17.65;13.98;;;15.60;53.60;;;;;;5012314;28;20476;-78
2022/04/24 08:52:37;;;;;;;26.15;16.92;;;15.60;53.00;;;;;;5013145;28;20591;-79
2022/04/24 08:55:03;;;;;;;18.10;14.60;;;15.50;53.50;;;;;;5012786;28;20055;-80
2022/04/24 08:57:33;;;;;;;20.50;14.35;;;15.60;53.50;;;;;;5009672;28;20034;-79
2022/04/24 09:00:00;;;;;;;17.27;13.95;;;15.60;53.90;;;;;;5008178;28;20120;-80
2022/04/24 09:02:26;;;;;;;17.38;13.95;;;15.60;53.80;;;;;;5016157;28;20040;-80
2022/04/24 09:04:53;;;;;;;17.73;14.35;;;15.80;53.70;;;;;;5011332;28;20034;-81
2022/04/24 09:07:20;;;;;;;15.63;13.95;;;15.90;52.80;;;;;;5010756;28;20118;-80
2022/04/24 09:09:50;;;;;;;16.80;13.80;;;15.80;52.40;;;;;;5012525;28;20509;-78
2022/04/24 09:12:18;;;;;;;19.23;14.75;;;15.50;53.40;;;;;;5015408;28;20409;-79
2022/04/24 09:14:52;;;;;;;16.67;13.95;;;16.00;52.70;;;;;;5014465;28;20480;-79
2022/04/24 09:17:23;;;;;;;20.02;14.07;;;16.30;52.10;;;;;;5011669;28;20030;-80
2022/04/24 09:19:50;;;;;;;17.42;14.15;;;16.50;52.30;;;;;;5019925;28;20085;-80
2022/04/24 09:22:16;;;;;;;17.65;14.27;;;16.60;50.70;;;;;;5016018;28;20041;-80
2022/04/24 09:24:49;;;;;;;16.10;14.00;;;16.80;51.00;;;;;;5011752;28;20033;-79
2022/04/24 09:27:27;;;;;;;16.08;13.38;;;16.70;50.90;;;;;;5011000;28;20045;-78
2022/04/24 09:30:15;;;;;;;16.88;14.75;;;16.90;50.40;;;;;;5009925;28;20471;-80
2022/04/24 09:32:52;;;;;;;18.65;14.60;;;16.70;50.90;;;;;;5012048;28;20305;-80
2022/04/24 09:35:28;;;;;;;22.13;14.35;;;16.80;50.60;;;;;;5009069;28;20056;-79
2022/04/24 09:38:14;;;;;;;17.48;14.43;;;16.60;50.60;;;;;;5010889;28;20489;-79
2022/04/24 09:40:44;;;;;;;16.15;14.45;;;16.80;50.30;;;;;;5010024;28;20084;-78
2022/04/24 09:43:11;;;;;;;17.10;13.82;;;16.80;50.80;;;;;;5007674;28;20527;-78
2022/04/24 09:45:39;;;;;;;16.65;14.50;;;16.90;49.90;;;;;;5011855;28;20038;-76
2022/04/24 09:48:13;;;;;;;15.07;13.48;;;16.90;50.30;;;;;;5010246;28;20072;-78
2022/04/24 09:50:39;;;;;;;16.33;13.82;;;16.90;49.70;;;;;;5011970;28;20125;-77
2022/04/24 09:53:05;;;;;;;16.83;14.02;;;16.90;50.40;;;;;;5009310;28;20556;-77
2022/04/24 09:55:31;;;;;;;17.40;13.65;;;17.00;48.70;;;;;;5022121;28;20049;-77
2022/04/24 09:57:57;;;;;;;14.80;12.82;;;17.10;48.10;;;;;;5024723;28;20043;-76
2022/04/24 10:00:23;;;;;;;14.98;12.55;;;16.90;48.60;;;;;;5020346;28;20049;-78
2022/04/24 10:02:52;;;;;;;18.83;13.15;;;17.10;49.10;;;;;;5013984;28;20393;-78
2022/04/24 10:05:18;;;;;;;16.90;13.02;;;17.50;49.40;;;;;;5011501;28;20042;-77
2022/04/24 10:07:49;;;;;;;14.23;12.65;;;17.70;47.30;;;;;;5012645;28;20606;-77
2022/04/24 10:10:16;;;;;;;14.75;13.15;;;17.70;47.40;;;;;;5011244;28;20068;-78
2022/04/24 10:12:43;;;;;;;15.85;13.18;;;17.90;47.20;;;;;;5009005;28;20640;-79
2022/04/24 10:15:14;;;;;;;15.95;12.75;;;17.90;45.30;;;;;;5011042;28;20137;-76
2022/04/24 10:18:08;;;;;;;16.33;12.93;;;18.20;44.40;;;;;;5010674;28;20092;-77
2022/04/24 10:20:49;;;;;;;14.80;12.65;;;18.00;46.60;;;;;;5012479;28;20289;-76
2022/04/24 10:23:27;;;;;;;14.45;11.82;;;18.10;45.90;;;;;;5013902;28;20080;-77
2022/04/24 10:25:53;;;;;;;16.00;12.70;;;18.40;45.40;;;;;;5013560;28;20042;-76
2022/04/24 10:28:20;;;;;;;14.38;12.77;;;18.50;45.30;;;;;;5011016;28;20045;-78
2022/04/24 10:30:59;;;;;;;14.85;11.90;;;18.60;45.80;;;;;;5009047;28;20437;-78
2022/04/24 10:33:28;;;;;;;15.65;13.15;;;18.90;44.70;;;;;;5012522;28;20049;-75
2022/04/24 10:36:02;;;;;;;16.17;13.05;;;18.70;44.50;;;;;;5012710;28;20084;-76
2022/04/24 10:38:29;;;;;;;15.10;12.30;;;18.60;44.30;;;;;;5012804;28;20140;-76
2022/04/24 10:41:01;;;;;;;14.80;11.93;;;18.50;44.10;;;;;;5014558;28;20645;-77
2022/04/24 10:43:44;;;;;;;14.88;13.27;;;18.30;44.10;;;;;;5015030;28;20557;-78
2022/04/24 10:46:35;;;;;;;14.17;12.67;;;18.10;44.70;;;;;;5014564;28;20178;-77
2022/04/24 10:49:14;;;;;;;17.77;12.48;;;18.50;44.90;;;;;;5014067;28;20171;-76
2022/04/24 10:51:42;;;;;;;16.92;12.43;;;18.60;43.70;;;;;;5013147;28;20091;-78
2022/04/24 10:54:13;;;;;;;16.08;13.40;;;18.80;43.40;;;;;;5012366;28;20488;-77
2022/04/24 10:56:41;;;;;;;14.30;12.60;;;18.90;43.40;;;;;;5015395;28;20125;-78
2022/04/24 10:59:16;;;;;;;15.60;12.35;;;18.80;44.10;;;;;;5014603;28;20050;-78
2022/04/24 11:01:42;;;;;;;;;;;19.10;42.40;;;;;;5012215;28;20053;-76
2022/04/24 11:04:10;;;;;;;15.98;12.52;;;19.00;43.00;;;;;;5011409;28;19921;-76
2022/04/24 11:06:36;;;;;;;15.30;12.30;;;19.10;41.20;;;;;;5012526;28;20040;-76
2022/04/24 11:09:12;;;;;;;16.38;12.68;;;19.30;41.50;;;;;;5020905;28;20075;-77
2022/04/24 11:11:52;;;;;;;14.48;12.80;;;19.40;41.10;;;;;;5014715;28;20369;-77
2022/04/24 11:14:20;;;;;;;12.95;11.35;;;19.30;41.90;;;;;;5009442;28;20081;-78
2022/04/24 11:16:54;;;;;;;16.23;12.30;;;19.30;42.10;;;;;;5014041;28;20473;-77
2022/04/24 11:19:25;;;;;;;15.30;12.85;;;19.50;41.70;;;;;;5013848;28;20060;-76
2022/04/24 11:22:17;;;;;;;16.38;12.32;;;19.30;41.60;;;;;;5018927;28;20038;-77
2022/04/24 11:24:42;;;;;;;14.52;12.95;;;19.10;41.80;;;;;;5016142;28;20049;-79
2022/04/24 11:27:13;;;;;;;15.70;12.68;;;19.30;42.10;;;;;;5014909;28;20121;-78
2022/04/24 11:29:39;;;;;;;15.63;11.82;;;19.20;41.70;;;;;;5018170;28;20049;-76
2022/04/24 11:32:09;;;;;;;14.95;12.18;;;19.60;41.70;;;;;;5017890;28;20055;-77
2022/04/24 11:34:36;;;;;;;14.52;11.90;;;19.50;40.70;;;;;;5023410;28;20061;-77
2022/04/24 11:37:04;;;;;;;14.63;12.27;;;19.70;41.00;;;;;;5023504;28;20045;-78
2022/04/24 11:39:30;;;;;;;15.60;12.13;;;19.80;40.80;;;;;;5015397;28;20073;-77
2022/04/24 11:41:58;;;;;;;13.18;11.35;;;19.60;42.70;;;;;;5030133;28;20885;-78
2022/04/24 11:50:15;;;;;;;14.63;12.20;;;20.10;40.90;;;;;;5010867;28;20138;-78
2022/04/24 11:52:48;;;;;;;18.13;11.90;;;20.00;40.20;;;;;;5010203;28;20139;-78
2022/04/24 11:55:22;;;;;;;14.13;11.75;;;20.00;40.50;;;;;;5009244;28;20046;-78
2022/04/24 11:57:59;;;;;;;13.23;11.35;;;20.10;39.80;;;;;;5010605;28;20099;-78
2022/04/24 12:00:35;;;;;;;12.98;11.57;;;19.70;39.70;;;;;;5009333;28;20508;-77
2022/04/24 12:03:01;;;;;;;13.02;10.48;;;19.60;40.60;;;;;;5007815;28;20056;-75
2022/04/24 12:05:29;;;;;;;13.68;11.27;;;20.00;41.10;;;;;;5015192;28;20040;-76
2022/04/24 12:07:57;;;;;;;12.85;11.43;;;20.10;39.70;;;;;;5028350;28;20056;-76
2022/04/24 12:10:25;;;;;;;14.13;11.80;;;20.10;39.60;;;;;;5031088;28;20091;-78
2022/04/24 12:12:52;;;;;;;13.95;11.00;;;19.70;39.30;;;;;;5014404;28;20049;-79
2022/04/24 12:15:23;;;;;;;13.98;10.35;;;20.20;39.90;;;;;;5008579;28;20500;-78
2022/04/24 12:17:49;;;;;;;14.10;11.02;;;20.40;38.10;;;;;;5008357;28;20045;-80
2022/04/24 12:20:15;;;;;;;14.60;10.65;;;20.50;37.50;;;;;;5011085;28;20107;-79
2022/04/24 12:22:41;;;;;;;17.52;11.13;;;20.30;37.80;;;;;;5015195;28;20045;-78
2022/04/24 12:25:11;;;;;;;16.58;10.55;;;20.30;37.80;;;;;;5009637;28;20034;-78
2022/04/24 12:27:37;;;;;;;13.50;9.88;;;20.60;38.10;;;;;;5010164;28;20496;-80
2022/04/24 12:30:06;;;;;;;13.50;10.82;;;20.90;37.90;;;;;;5008371;28;20130;-81
2022/04/24 12:32:34;;;;;;;13.20;9.77;;;20.70;37.00;;;;;;5025839;28;20099;-81
2022/04/24 12:35:00;;;;;;;12.45;11.15;;;20.10;37.90;;;;;;5011059;28;20101;-78
2022/04/24 12:37:33;;;;;;;12.25;10.50;;;20.10;38.40;;;;;;5010855;28;20144;-80